Dinuba, CA

3:58 PM PDT on August 30, 2014 (GMT -0700)
Dinuba | Change Station
CLOSE
Current Station
Personal Weather Station
Location: Dinuba, CA
Elevation: 358 ft
Nearby Weather Stations

Elev 358 ft 36.56 °N, 119.41 °W | Updated 6 minutes ago

Partly Cloudy
Partly Cloudy
93.4 °F
Feels Like 92 °F
N
6.3
Wind Variable Wind from NW

Today
High -- | Low -- °F
--% Chance of Precip.
Yesterday
High -- | Low -- °F
Precip. -- in
6:27 AM 7:28 PM
Waxing Crescent, 25% visible
Pressure 29.79 in
Visibility 10.0 miles
Clouds Clear
Heat Index 92 °F
Dew Point 57 °F
Humidity 30%
Rainfall 0.00 in
Snow Depth Not available.
UV 6 out of 12
Pollen 9.90 out of 12
PM2.5 Moderate
Flu Activity Not available.
METAR KVIS 302235Z AUTO 35008KT 10SM CLR 36/10 A2979 RMK AO1

More Conditions Fewer Conditions

Pressure 29.79 in
Visibility 10.0 miles
Clouds Clear
Heat Index 92 °F
Dew Point 57 °F
Humidity 30%
Rainfall 0.00 in
Snow Depth Not available.
UV 6 out of 12
Pollen 9.90 out of 12
PM2.5 Moderate
Flu Activity Not available.
METAR KVIS 302235Z AUTO 35008KT 10SM CLR 36/10 A2979 RMK AO1

More Conditions Fewer Conditions

10-Day Weather Forecast

Almanac

Astronomy

Aug. 30, 2014 Rise Set
Actual Time 6:27 AM PDT 7:28 PM PDT
Civil Twilight 6:00 AM PDT 7:54 PM PDT
Nautical Twilight 5:29 AM PDT 8:26 PM PDT
Astronomical Twilight 4:56 AM PDT 8:58 PM PDT
Moon 11:10 AM PDT 10:15 PM PDT
Length of Visible Light 13h 53m
Length of Day
13h 01m
Tomorrow will be 2m 14s shorter.
Waxing Crescent, 25% of the Moon is Illuminated
Today
Waxing Crescent
Sep 2
First Quarter
Sep 8
Full
Sep 15
Last Quarter
Sep 24
New

Today's Extremes

State Highs State Lows

Community

WunderPhotos

Upload Photos

1,748,663 photos uploaded!

WunderBlogs® & News

Nearby

Air Quality

  Air Quality AQ Index Pollutant
Yesterday Unhealthy for Sensitive Groups
OZONE
Yesterday Good
PM2.5
Current Moderate
PM2.5
Saturday Moderate
OZONE
Sunday Moderate
OZONE
Monday Moderate
OZONE
Tuesday Moderate
OZONE
Wednesday Moderate
OZONE
Thursday Moderate
OZONE

Snow Depth

Station Depth Elevation
Leavitt Meadows 0 in 7200 ft
Summit Meadow 0 in 9122 ft
Hagan's Meadow 0 in 8000 ft
Rubicon #2 0 in 7500 ft
CSS Lab 0 in 6900 ft

Earthquake Activity

City Distance Mag. Time & Date
Ridgemark, California 107 miles 3.4 4:32 PM PDT
2014-08-29
Ridgemark, California 107 miles 3.0 2:44 PM PDT
2014-08-29
Orange Cove, California 9 miles 2.5 7:48 AM PDT
2014-08-29
Minimum magnitude displayed is 2.5.

Coastal Water Temperatures

Place Temperature
No Stations Reporting

Nearby Weather Stations